In Rescue
 
Open Full Screen Window  High Contrast Mode
November 20, 2019 2:02 AM EST
Weather Information
Wind Direction
  ---
Wind Speed
  00 kt (0 mph)
Wind Gust
  00 kt (0 mph)
Altimeter
30.00 in
Visibility
7 SM
Temperature
00° C
32° F
Dewpoint
-01° C
30° F
Humidity
93%
1hr Rain Fall
00.00 in.
24hr Rain Fall
00.00 in.
Sky Condition
Scattered @ 10,000 ft
VFR

METAR K4I3 200702Z AUTO 00000KT 7SM SCT100 00/M01 A3000 RMK AO2

FAA Disclaimer: The data displayed is for advisory purposes only and is not to be used for flight planning or operations.